Atkinson, NE

7:27 PM CDT on August 04, 2015 (GMT -0500)
The O'Neill Municipal-Baker | | Change Station
CLOSE
Current Station
Airport
Location: O'Neill,
Elevation: 2031 ft
Nearby Weather Stations

Elev 2031 ft 42.47 °N, 98.69 °W | Updated 12 minutes ago

Partly Cloudy
Partly Cloudy
75 °F
Feels Like 75 °F
N
8
Wind Variable Wind from ESE

Today
High -- | Low -- °F
--% Chance of Precip.
Yesterday
High -- | Low -- °F
Precip. -- in
6:30 AM 8:52 PM
Waning Gibbous, 73% visible
Pressure 29.97 in
Visibility 10.0 miles
Clouds Mostly Cloudy 4600 ft
Overcast 6000 ft
Dew Point 64 °F
Humidity 69%
Rainfall 2.78 in
Snow Depth Not available.
UV 0 out of 12
Pollen 7.20 out of 12
Air Quality Not available.
Flu Activity Not available.
METAR KONL 050015Z AUTO 12007KT 10SM BKN046 OVC060 24/18 A2997 RMK AO2 T02400180

More Conditions Fewer Conditions

Pressure 29.97 in
Visibility 10.0 miles
Clouds Mostly Cloudy 4600 ft
Overcast 6000 ft
Dew Point 64 °F
Humidity 69%
Rainfall 2.78 in
Snow Depth Not available.
UV 0 out of 12
Pollen 7.20 out of 12
Air Quality Not available.
Flu Activity Not available.
METAR KONL 050015Z AUTO 12007KT 10SM BKN046 OVC060 24/18 A2997 RMK AO2 T02400180

More Conditions Fewer Conditions

10-Day Weather Forecast

×

Almanac

Astronomy

Aug. 04, 2015 Rise Set
Actual Time
Civil Twilight
Nautical Twilight
Astronomical Twilight
Moon
Length of Visible Light
Length of Day
Tomorrow will be .
, % of the Moon is Illuminated

Today's Extremes

State Highs State Lows

Community

WunderPhotos

Upload Photos

1,844,033 photos uploaded!

WunderBlogs® & News

Nearby

Air Quality

  Air Quality AQ Index Pollutant
Not available.

Snow Depth

Station Depth Elevation

Earthquake Activity

City Distance Mag. Time & Date
Minimum magnitude displayed is 2.5.

Coastal Water Temperatures

Place Temperature

Stations

Nearby Weather Stations

Station Location Temp. Windchill Dew Point Humidity Wind Precip. Elev Updated Type